Bob Sikes Airport
KCEW : now visible

Airfield :











YOU CAN JOIN US ON...

 
LOGIN :

Register | Disclaimer

   EN    FR    IT 

 









Legend :    VFR   Marginal VFR   IFR   Intensive IFR   Very Intensive IFR
Visi :
Ceiling :
>= 8 km
>= 3000ft
5 to 8 km
1000 to 3000 ft
1500m to 5 km
500 to 1000 ft
800 to 1500m
200 to 500 ft
< 800m
< 200 ft
Symbols :   Thunderstorms  Fog  Heavy snow  Heavy precipitations  Wind > 20 kt







- Airport Elevation : 213 ft


KCEW - Bob Sikes

CURRENT METAR :
  • 191153Z AUTO 27007KT 10SM SCT013 BKN022 OVC042 18/16 A2961 RMK AO2 SLP023 60050 70057 T01780161 10239 20178 53004

EXPIRED METARs :
  • 191130Z AUTO 28008KT 10SM FEW007 BKN020 OVC042 18/17 A2960 RMK AO2 T01830167
  • 191100Z AUTO 30009KT 10SM BKN008 OVC014 18/17 A2959 RMK AO2 CIG 006V010 T01830167
  • 191053Z AUTO 30008KT 10SM SCT008 OVC013 19/17 A2959 RMK AO2 RAB08E50 SLP016 P0000 T01890172
  • 191009Z AUTO 23007KT 10SM -RA BKN006 BKN015 OVC060 21/19 A2958 RMK AO2 RAB08 CIG 004V011 P0000 T02060194
  • 190953Z AUTO 20008KT 10SM FEW006 BKN042 OVC060 21/19 A2958 RMK AO2 LTG DSNT SE RAE48 SLP013 P0025 T02060194
  • 190937Z AUTO 21008KT 6SM -RA BR SCT007 BKN031 OVC070 21/19 A2959 RMK AO2 LTG DSNT N P0025 T02060194
  • 190920Z AUTO 21010G18KT 2SM +RA BR FEW009 BKN033 OVC075 21/19 A2959 RMK AO2 P0018 T02060194

TAF N/A
KZJX FIR / North America



MET'MAP, your aeronautical weather chart ! - Copyright ORBIFLY December 2007 - Disclaimer

ORBIFLY MET'MAP TEAM :

Programming & Development : Alexandra Zaïnal
Concept & Development : Baudouin d'Aumeries
Co-Development & Prog : Marc-Olivier Méhu
Technical & hardware support : Manuel Goepfert

Contact : metmap@orbifly.com




SOURCES & CREDITS :

   NOAA       Earth
Advisory